<?xml version="1.0" encoding="UTF-8" standalone="no" ?>
<gpx xmlns="http://www.topografix.com/GPX/1/1" xmlns:xsi="http://www.w3.org/2001/XMLSchema-instance" xsi:schemaLocation="http://www.topografix.com/GPX/1/1 http://www.topografix.com/GPX/1/1/gpx.xsd" version="1.1" creator="VisuGPX - https://www.visugpx.com">
  <metadata>
    <name>fontenilles-Blagnac</name>
    <desc><![CDATA[Trajet de Fontenilles à Blagnac]]></desc>
  </metadata>
  <wpt lat="43.56694" lon="1.20083">
    <ele>198.64</ele>
    <name><![CDATA[001]]></name>
  </wpt>
  <wpt lat="38.85555" lon="-94.79902">
    <ele>3.01</ele>
    <name><![CDATA[GARMIN]]></name>
  </wpt>
  <wpt lat="50.98288" lon="-1.4639">
    <ele>3.01</ele>
    <name><![CDATA[GRMEUR]]></name>
  </wpt>
  <wpt lat="25.06178" lon="121.64027">
    <ele>3.01</ele>
    <name><![CDATA[GRMTWN]]></name>
  </wpt>
  <trk>
    <name><![CDATA[ACTIVE LOG: 23 FEV 2017 07:53]]></name>
    <trkseg>
      <trkpt lat="43.56702" lon="1.20085">
        <ele>192.88</ele>
        <time>2017-02-23T06:53:03Z</time>
      </trkpt>
      <trkpt lat="43.56702" lon="1.20085">
        <ele>195.77</ele>
        <time>2017-02-23T06:53:10Z</time>
      </trkpt>
      <trkpt lat="43.56703" lon="1.20084">
        <ele>199.61</ele>
        <time>2017-02-23T06:53:15Z</time>
      </trkpt>
      <trkpt lat="43.56703" lon="1.20084">
        <ele>202.49</ele>
        <time>2017-02-23T06:53:21Z</time>
      </trkpt>
      <trkpt lat="43.56703" lon="1.20084">
        <ele>205.86</ele>
        <time>2017-02-23T06:53:29Z</time>
      </trkpt>
      <trkpt lat="43.56703" lon="1.20084">
        <ele>209.22</ele>
        <time>2017-02-23T06:53:40Z</time>
      </trkpt>
      <trkpt lat="43.56703" lon="1.20084">
        <ele>212.11</ele>
        <time>2017-02-23T06:53:55Z</time>
      </trkpt>
      <trkpt lat="43.56703" lon="1.20084">
        <ele>214.99</ele>
        <time>2017-02-23T06:54:34Z</time>
      </trkpt>
      <trkpt lat="43.567" lon="1.20085">
        <ele>212.11</ele>
        <time>2017-02-23T07:08:09Z</time>
      </trkpt>
      <trkpt lat="43.567" lon="1.20085">
        <ele>214.99</ele>
        <time>2017-02-23T07:10:54Z</time>
      </trkpt>
      <trkpt lat="43.567" lon="1.20083">
        <ele>215.47</ele>
        <time>2017-02-23T07:24:07Z</time>
      </trkpt>
      <trkpt lat="43.56689" lon="1.20086">
        <ele>215.95</ele>
        <time>2017-02-23T07:24:22Z</time>
      </trkpt>
      <trkpt lat="43.5669" lon="1.20085">
        <ele>215.95</ele>
        <time>2017-02-23T07:24:59Z</time>
      </trkpt>
      <trkpt lat="43.56687" lon="1.20086">
        <ele>214.51</ele>
        <time>2017-02-23T07:25:14Z</time>
      </trkpt>
      <trkpt lat="43.56691" lon="1.20081">
        <ele>212.59</ele>
        <time>2017-02-23T07:30:55Z</time>
      </trkpt>
      <trkpt lat="43.56689" lon="1.2008">
        <ele>212.59</ele>
        <time>2017-02-23T07:31:16Z</time>
      </trkpt>
      <trkpt lat="43.56683" lon="1.20073">
        <ele>212.59</ele>
        <time>2017-02-23T07:31:21Z</time>
      </trkpt>
      <trkpt lat="43.56682" lon="1.20048">
        <ele>212.59</ele>
        <time>2017-02-23T07:31:42Z</time>
      </trkpt>
      <trkpt lat="43.56681" lon="1.20044">
        <ele>212.59</ele>
        <time>2017-02-23T07:33:17Z</time>
      </trkpt>
      <trkpt lat="43.56705" lon="1.19996">
        <ele>212.11</ele>
        <time>2017-02-23T07:33:33Z</time>
      </trkpt>
      <trkpt lat="43.56711" lon="1.1999">
        <ele>212.11</ele>
        <time>2017-02-23T07:33:35Z</time>
      </trkpt>
      <trkpt lat="43.56731" lon="1.1999">
        <ele>212.11</ele>
        <time>2017-02-23T07:33:40Z</time>
      </trkpt>
      <trkpt lat="43.56796" lon="1.20049">
        <ele>212.11</ele>
        <time>2017-02-23T07:33:55Z</time>
      </trkpt>
      <trkpt lat="43.56795" lon="1.20074">
        <ele>212.11</ele>
        <time>2017-02-23T07:33:59Z</time>
      </trkpt>
      <trkpt lat="43.56761" lon="1.20143">
        <ele>211.63</ele>
        <time>2017-02-23T07:34:08Z</time>
      </trkpt>
      <trkpt lat="43.56752" lon="1.20167">
        <ele>212.11</ele>
        <time>2017-02-23T07:34:11Z</time>
      </trkpt>
      <trkpt lat="43.56691" lon="1.20278">
        <ele>211.63</ele>
        <time>2017-02-23T07:34:26Z</time>
      </trkpt>
      <trkpt lat="43.56692" lon="1.20322">
        <ele>211.15</ele>
        <time>2017-02-23T07:34:31Z</time>
      </trkpt>
      <trkpt lat="43.56699" lon="1.20339">
        <ele>211.63</ele>
        <time>2017-02-23T07:34:33Z</time>
      </trkpt>
      <trkpt lat="43.567" lon="1.20376">
        <ele>211.15</ele>
        <time>2017-02-23T07:34:37Z</time>
      </trkpt>
      <trkpt lat="43.56641" lon="1.20546">
        <ele>211.63</ele>
        <time>2017-02-23T07:34:58Z</time>
      </trkpt>
      <trkpt lat="43.56622" lon="1.2057">
        <ele>211.15</ele>
        <time>2017-02-23T07:35:02Z</time>
      </trkpt>
      <trkpt lat="43.56577" lon="1.20604">
        <ele>211.63</ele>
        <time>2017-02-23T07:35:10Z</time>
      </trkpt>
      <trkpt lat="43.56553" lon="1.20611">
        <ele>211.63</ele>
        <time>2017-02-23T07:35:14Z</time>
      </trkpt>
      <trkpt lat="43.56423" lon="1.20601">
        <ele>211.15</ele>
        <time>2017-02-23T07:35:34Z</time>
      </trkpt>
      <trkpt lat="43.5641" lon="1.20602">
        <ele>211.15</ele>
        <time>2017-02-23T07:35:36Z</time>
      </trkpt>
      <trkpt lat="43.56378" lon="1.20602">
        <ele>211.63</ele>
        <time>2017-02-23T07:35:41Z</time>
      </trkpt>
      <trkpt lat="43.56359" lon="1.2062">
        <ele>211.15</ele>
        <time>2017-02-23T07:35:45Z</time>
      </trkpt>
      <trkpt lat="43.56336" lon="1.20673">
        <ele>211.63</ele>
        <time>2017-02-23T07:35:52Z</time>
      </trkpt>
      <trkpt lat="43.56308" lon="1.20684">
        <ele>212.11</ele>
        <time>2017-02-23T07:35:57Z</time>
      </trkpt>
      <trkpt lat="43.56254" lon="1.2065">
        <ele>209.22</ele>
        <time>2017-02-23T07:36:09Z</time>
      </trkpt>
      <trkpt lat="43.56252" lon="1.20652">
        <ele>208.74</ele>
        <time>2017-02-23T07:36:10Z</time>
      </trkpt>
      <trkpt lat="43.5628" lon="1.20729">
        <ele>211.63</ele>
        <time>2017-02-23T07:36:23Z</time>
      </trkpt>
      <trkpt lat="43.56328" lon="1.2087">
        <ele>212.59</ele>
        <time>2017-02-23T07:36:41Z</time>
      </trkpt>
      <trkpt lat="43.56354" lon="1.20968">
        <ele>212.11</ele>
        <time>2017-02-23T07:36:54Z</time>
      </trkpt>
      <trkpt lat="43.56363" lon="1.21083">
        <ele>212.59</ele>
        <time>2017-02-23T07:37:07Z</time>
      </trkpt>
      <trkpt lat="43.56394" lon="1.21219">
        <ele>211.63</ele>
        <time>2017-02-23T07:37:23Z</time>
      </trkpt>
      <trkpt lat="43.56453" lon="1.21434">
        <ele>210.19</ele>
        <time>2017-02-23T07:37:48Z</time>
      </trkpt>
      <trkpt lat="43.56518" lon="1.21686">
        <ele>208.74</ele>
        <time>2017-02-23T07:38:17Z</time>
      </trkpt>
      <trkpt lat="43.56566" lon="1.21846">
        <ele>208.74</ele>
        <time>2017-02-23T07:38:35Z</time>
      </trkpt>
      <trkpt lat="43.56621" lon="1.22047">
        <ele>209.7</ele>
        <time>2017-02-23T07:38:57Z</time>
      </trkpt>
      <trkpt lat="43.56686" lon="1.22303">
        <ele>208.74</ele>
        <time>2017-02-23T07:39:24Z</time>
      </trkpt>
      <trkpt lat="43.56734" lon="1.22472">
        <ele>208.26</ele>
        <time>2017-02-23T07:39:42Z</time>
      </trkpt>
      <trkpt lat="43.56755" lon="1.22707">
        <ele>206.82</ele>
        <time>2017-02-23T07:40:04Z</time>
      </trkpt>
      <trkpt lat="43.56786" lon="1.22926">
        <ele>206.34</ele>
        <time>2017-02-23T07:40:25Z</time>
      </trkpt>
      <trkpt lat="43.56848" lon="1.23057">
        <ele>205.38</ele>
        <time>2017-02-23T07:40:40Z</time>
      </trkpt>
      <trkpt lat="43.56918" lon="1.23251">
        <ele>204.9</ele>
        <time>2017-02-23T07:41:02Z</time>
      </trkpt>
      <trkpt lat="43.56929" lon="1.23428">
        <ele>203.94</ele>
        <time>2017-02-23T07:41:19Z</time>
      </trkpt>
      <trkpt lat="43.56965" lon="1.23646">
        <ele>201.05</ele>
        <time>2017-02-23T07:41:39Z</time>
      </trkpt>
      <trkpt lat="43.56983" lon="1.23757">
        <ele>200.09</ele>
        <time>2017-02-23T07:41:49Z</time>
      </trkpt>
      <trkpt lat="43.56981" lon="1.2381">
        <ele>199.61</ele>
        <time>2017-02-23T07:41:54Z</time>
      </trkpt>
      <trkpt lat="43.56938" lon="1.24026">
        <ele>200.57</ele>
        <time>2017-02-23T07:42:16Z</time>
      </trkpt>
      <trkpt lat="43.56929" lon="1.24291">
        <ele>199.13</ele>
        <time>2017-02-23T07:42:42Z</time>
      </trkpt>
      <trkpt lat="43.56972" lon="1.24435">
        <ele>198.65</ele>
        <time>2017-02-23T07:42:58Z</time>
      </trkpt>
      <trkpt lat="43.56991" lon="1.24499">
        <ele>198.65</ele>
        <time>2017-02-23T07:43:05Z</time>
      </trkpt>
      <trkpt lat="43.56986" lon="1.24555">
        <ele>198.65</ele>
        <time>2017-02-23T07:43:11Z</time>
      </trkpt>
      <trkpt lat="43.57" lon="1.24585">
        <ele>198.65</ele>
        <time>2017-02-23T07:43:15Z</time>
      </trkpt>
      <trkpt lat="43.57033" lon="1.24678">
        <ele>199.13</ele>
        <time>2017-02-23T07:43:26Z</time>
      </trkpt>
      <trkpt lat="43.57039" lon="1.24697">
        <ele>199.13</ele>
        <time>2017-02-23T07:43:28Z</time>
      </trkpt>
      <trkpt lat="43.57132" lon="1.24832">
        <ele>197.69</ele>
        <time>2017-02-23T07:43:46Z</time>
      </trkpt>
      <trkpt lat="43.57221" lon="1.24984">
        <ele>197.69</ele>
        <time>2017-02-23T07:44:05Z</time>
      </trkpt>
      <trkpt lat="43.57326" lon="1.25107">
        <ele>196.25</ele>
        <time>2017-02-23T07:44:23Z</time>
      </trkpt>
      <trkpt lat="43.57362" lon="1.25237">
        <ele>196.73</ele>
        <time>2017-02-23T07:44:36Z</time>
      </trkpt>
      <trkpt lat="43.57455" lon="1.25425">
        <ele>197.21</ele>
        <time>2017-02-23T07:44:58Z</time>
      </trkpt>
      <trkpt lat="43.57578" lon="1.25654">
        <ele>196.73</ele>
        <time>2017-02-23T07:45:26Z</time>
      </trkpt>
      <trkpt lat="43.57616" lon="1.25718">
        <ele>195.77</ele>
        <time>2017-02-23T07:45:34Z</time>
      </trkpt>
      <trkpt lat="43.57643" lon="1.25844">
        <ele>193.36</ele>
        <time>2017-02-23T07:45:45Z</time>
      </trkpt>
      <trkpt lat="43.5765" lon="1.25872">
        <ele>191.92</ele>
        <time>2017-02-23T07:45:47Z</time>
      </trkpt>
      <trkpt lat="43.57656" lon="1.25933">
        <ele>189.52</ele>
        <time>2017-02-23T07:45:51Z</time>
      </trkpt>
      <trkpt lat="43.57658" lon="1.25988">
        <ele>185.67</ele>
        <time>2017-02-23T07:45:55Z</time>
      </trkpt>
      <trkpt lat="43.57658" lon="1.26065">
        <ele>183.75</ele>
        <time>2017-02-23T07:46:02Z</time>
      </trkpt>
      <trkpt lat="43.57656" lon="1.26111">
        <ele>182.79</ele>
        <time>2017-02-23T07:46:11Z</time>
      </trkpt>
      <trkpt lat="43.57659" lon="1.26216">
        <ele>182.79</ele>
        <time>2017-02-23T07:46:21Z</time>
      </trkpt>
      <trkpt lat="43.57665" lon="1.26444">
        <ele>180.38</ele>
        <time>2017-02-23T07:46:42Z</time>
      </trkpt>
      <trkpt lat="43.57672" lon="1.26654">
        <ele>176.54</ele>
        <time>2017-02-23T07:47:00Z</time>
      </trkpt>
      <trkpt lat="43.57672" lon="1.26666">
        <ele>176.06</ele>
        <time>2017-02-23T07:47:01Z</time>
      </trkpt>
      <trkpt lat="43.5768" lon="1.26786">
        <ele>174.62</ele>
        <time>2017-02-23T07:47:11Z</time>
      </trkpt>
      <trkpt lat="43.57667" lon="1.26869">
        <ele>173.66</ele>
        <time>2017-02-23T07:47:19Z</time>
      </trkpt>
      <trkpt lat="43.57642" lon="1.26969">
        <ele>174.62</ele>
        <time>2017-02-23T07:47:31Z</time>
      </trkpt>
      <trkpt lat="43.57633" lon="1.26989">
        <ele>174.62</ele>
        <time>2017-02-23T07:47:34Z</time>
      </trkpt>
      <trkpt lat="43.57616" lon="1.27031">
        <ele>175.1</ele>
        <time>2017-02-23T07:47:41Z</time>
      </trkpt>
      <trkpt lat="43.57624" lon="1.27086">
        <ele>177.5</ele>
        <time>2017-02-23T07:47:50Z</time>
      </trkpt>
      <trkpt lat="43.57669" lon="1.27124">
        <ele>181.35</ele>
        <time>2017-02-23T07:48:05Z</time>
      </trkpt>
      <trkpt lat="43.57683" lon="1.27136">
        <ele>182.79</ele>
        <time>2017-02-23T07:48:09Z</time>
      </trkpt>
      <trkpt lat="43.57715" lon="1.27163">
        <ele>186.63</ele>
        <time>2017-02-23T07:48:18Z</time>
      </trkpt>
      <trkpt lat="43.57734" lon="1.27189">
        <ele>189.04</ele>
        <time>2017-02-23T07:48:24Z</time>
      </trkpt>
      <trkpt lat="43.57743" lon="1.27215">
        <ele>191.92</ele>
        <time>2017-02-23T07:48:29Z</time>
      </trkpt>
      <trkpt lat="43.57744" lon="1.27245">
        <ele>193.36</ele>
        <time>2017-02-23T07:48:34Z</time>
      </trkpt>
      <trkpt lat="43.57763" lon="1.27266">
        <ele>194.8</ele>
        <time>2017-02-23T07:48:41Z</time>
      </trkpt>
      <trkpt lat="43.57897" lon="1.27284">
        <ele>194.32</ele>
        <time>2017-02-23T07:49:05Z</time>
      </trkpt>
      <trkpt lat="43.58036" lon="1.27311">
        <ele>193.84</ele>
        <time>2017-02-23T07:49:25Z</time>
      </trkpt>
      <trkpt lat="43.58161" lon="1.27386">
        <ele>193.36</ele>
        <time>2017-02-23T07:49:43Z</time>
      </trkpt>
      <trkpt lat="43.58192" lon="1.27421">
        <ele>192.88</ele>
        <time>2017-02-23T07:49:48Z</time>
      </trkpt>
      <trkpt lat="43.58212" lon="1.27456">
        <ele>192.88</ele>
        <time>2017-02-23T07:49:52Z</time>
      </trkpt>
      <trkpt lat="43.58261" lon="1.2758">
        <ele>192.88</ele>
        <time>2017-02-23T07:50:05Z</time>
      </trkpt>
      <trkpt lat="43.58357" lon="1.27794">
        <ele>191.92</ele>
        <time>2017-02-23T07:50:28Z</time>
      </trkpt>
      <trkpt lat="43.58453" lon="1.27884">
        <ele>192.4</ele>
        <time>2017-02-23T07:50:42Z</time>
      </trkpt>
      <trkpt lat="43.58619" lon="1.28025">
        <ele>191.44</ele>
        <time>2017-02-23T07:51:06Z</time>
      </trkpt>
      <trkpt lat="43.58693" lon="1.28041">
        <ele>190.96</ele>
        <time>2017-02-23T07:51:15Z</time>
      </trkpt>
      <trkpt lat="43.5885" lon="1.28052">
        <ele>190.96</ele>
        <time>2017-02-23T07:51:34Z</time>
      </trkpt>
      <trkpt lat="43.58947" lon="1.28134">
        <ele>191.44</ele>
        <time>2017-02-23T07:51:48Z</time>
      </trkpt>
      <trkpt lat="43.59018" lon="1.2823">
        <ele>190.96</ele>
        <time>2017-02-23T07:52:00Z</time>
      </trkpt>
      <trkpt lat="43.59087" lon="1.28424">
        <ele>189.52</ele>
        <time>2017-02-23T07:52:19Z</time>
      </trkpt>
      <trkpt lat="43.5919" lon="1.28524">
        <ele>189.52</ele>
        <time>2017-02-23T07:52:35Z</time>
      </trkpt>
      <trkpt lat="43.59208" lon="1.28538">
        <ele>189.04</ele>
        <time>2017-02-23T07:52:38Z</time>
      </trkpt>
      <trkpt lat="43.59224" lon="1.28561">
        <ele>189.04</ele>
        <time>2017-02-23T07:52:42Z</time>
      </trkpt>
      <trkpt lat="43.59251" lon="1.28566">
        <ele>189.52</ele>
        <time>2017-02-23T07:52:46Z</time>
      </trkpt>
      <trkpt lat="43.59396" lon="1.28616">
        <ele>190</ele>
        <time>2017-02-23T07:53:04Z</time>
      </trkpt>
      <trkpt lat="43.59505" lon="1.2873">
        <ele>188.56</ele>
        <time>2017-02-23T07:53:20Z</time>
      </trkpt>
      <trkpt lat="43.59581" lon="1.28867">
        <ele>189.52</ele>
        <time>2017-02-23T07:53:35Z</time>
      </trkpt>
      <trkpt lat="43.59677" lon="1.29001">
        <ele>188.56</ele>
        <time>2017-02-23T07:53:51Z</time>
      </trkpt>
      <trkpt lat="43.59697" lon="1.2905">
        <ele>188.56</ele>
        <time>2017-02-23T07:53:56Z</time>
      </trkpt>
      <trkpt lat="43.59782" lon="1.29143">
        <ele>188.56</ele>
        <time>2017-02-23T07:54:09Z</time>
      </trkpt>
      <trkpt lat="43.59843" lon="1.29291">
        <ele>189.04</ele>
        <time>2017-02-23T07:54:24Z</time>
      </trkpt>
      <trkpt lat="43.5988" lon="1.29465">
        <ele>186.63</ele>
        <time>2017-02-23T07:54:40Z</time>
      </trkpt>
      <trkpt lat="43.59939" lon="1.29597">
        <ele>185.67</ele>
        <time>2017-02-23T07:54:54Z</time>
      </trkpt>
      <trkpt lat="43.60039" lon="1.29717">
        <ele>185.19</ele>
        <time>2017-02-23T07:55:11Z</time>
      </trkpt>
      <trkpt lat="43.60094" lon="1.29832">
        <ele>185.19</ele>
        <time>2017-02-23T07:55:24Z</time>
      </trkpt>
      <trkpt lat="43.60153" lon="1.29974">
        <ele>185.19</ele>
        <time>2017-02-23T07:55:39Z</time>
      </trkpt>
      <trkpt lat="43.60158" lon="1.30014">
        <ele>185.67</ele>
        <time>2017-02-23T07:55:44Z</time>
      </trkpt>
      <trkpt lat="43.60198" lon="1.30092">
        <ele>185.19</ele>
        <time>2017-02-23T07:55:54Z</time>
      </trkpt>
      <trkpt lat="43.60228" lon="1.30171">
        <ele>185.19</ele>
        <time>2017-02-23T07:56:03Z</time>
      </trkpt>
      <trkpt lat="43.60275" lon="1.30306">
        <ele>185.19</ele>
        <time>2017-02-23T07:56:16Z</time>
      </trkpt>
      <trkpt lat="43.60319" lon="1.30423">
        <ele>185.67</ele>
        <time>2017-02-23T07:56:28Z</time>
      </trkpt>
      <trkpt lat="43.60387" lon="1.30621">
        <ele>185.67</ele>
        <time>2017-02-23T07:56:48Z</time>
      </trkpt>
      <trkpt lat="43.60402" lon="1.30673">
        <ele>185.19</ele>
        <time>2017-02-23T07:56:53Z</time>
      </trkpt>
      <trkpt lat="43.60428" lon="1.30708">
        <ele>185.19</ele>
        <time>2017-02-23T07:56:58Z</time>
      </trkpt>
      <trkpt lat="43.6046" lon="1.30723">
        <ele>185.19</ele>
        <time>2017-02-23T07:57:04Z</time>
      </trkpt>
      <trkpt lat="43.60471" lon="1.30768">
        <ele>186.15</ele>
        <time>2017-02-23T07:57:11Z</time>
      </trkpt>
      <trkpt lat="43.60467" lon="1.30777">
        <ele>186.15</ele>
        <time>2017-02-23T07:57:12Z</time>
      </trkpt>
      <trkpt lat="43.60448" lon="1.30828">
        <ele>185.19</ele>
        <time>2017-02-23T07:57:17Z</time>
      </trkpt>
      <trkpt lat="43.60444" lon="1.30872">
        <ele>184.71</ele>
        <time>2017-02-23T07:57:21Z</time>
      </trkpt>
      <trkpt lat="43.60497" lon="1.31029">
        <ele>181.83</ele>
        <time>2017-02-23T07:57:37Z</time>
      </trkpt>
      <trkpt lat="43.60525" lon="1.31104">
        <ele>181.83</ele>
        <time>2017-02-23T07:57:45Z</time>
      </trkpt>
      <trkpt lat="43.60528" lon="1.31198">
        <ele>182.31</ele>
        <time>2017-02-23T07:57:54Z</time>
      </trkpt>
      <trkpt lat="43.60484" lon="1.31269">
        <ele>182.79</ele>
        <time>2017-02-23T07:58:03Z</time>
      </trkpt>
      <trkpt lat="43.60442" lon="1.31342">
        <ele>182.79</ele>
        <time>2017-02-23T07:58:16Z</time>
      </trkpt>
      <trkpt lat="43.60442" lon="1.31359">
        <ele>182.79</ele>
        <time>2017-02-23T07:58:19Z</time>
      </trkpt>
      <trkpt lat="43.60454" lon="1.31483">
        <ele>183.75</ele>
        <time>2017-02-23T07:58:32Z</time>
      </trkpt>
      <trkpt lat="43.60476" lon="1.31791">
        <ele>182.79</ele>
        <time>2017-02-23T07:59:04Z</time>
      </trkpt>
      <trkpt lat="43.60492" lon="1.31985">
        <ele>183.75</ele>
        <time>2017-02-23T07:59:24Z</time>
      </trkpt>
      <trkpt lat="43.60514" lon="1.32261">
        <ele>183.27</ele>
        <time>2017-02-23T07:59:52Z</time>
      </trkpt>
      <trkpt lat="43.60519" lon="1.32333">
        <ele>183.75</ele>
        <time>2017-02-23T08:00:02Z</time>
      </trkpt>
      <trkpt lat="43.60525" lon="1.32356">
        <ele>183.27</ele>
        <time>2017-02-23T08:00:06Z</time>
      </trkpt>
      <trkpt lat="43.6053" lon="1.3239">
        <ele>182.79</ele>
        <time>2017-02-23T08:00:16Z</time>
      </trkpt>
      <trkpt lat="43.60537" lon="1.32393">
        <ele>182.79</ele>
        <time>2017-02-23T08:00:19Z</time>
      </trkpt>
      <trkpt lat="43.60583" lon="1.32473">
        <ele>186.15</ele>
        <time>2017-02-23T08:00:34Z</time>
      </trkpt>
      <trkpt lat="43.60615" lon="1.32543">
        <ele>189.04</ele>
        <time>2017-02-23T08:00:44Z</time>
      </trkpt>
      <trkpt lat="43.60632" lon="1.32586">
        <ele>188.08</ele>
        <time>2017-02-23T08:00:49Z</time>
      </trkpt>
      <trkpt lat="43.60624" lon="1.32643">
        <ele>187.11</ele>
        <time>2017-02-23T08:00:55Z</time>
      </trkpt>
      <trkpt lat="43.60589" lon="1.32628">
        <ele>185.19</ele>
        <time>2017-02-23T08:01:00Z</time>
      </trkpt>
      <trkpt lat="43.60582" lon="1.32613">
        <ele>183.75</ele>
        <time>2017-02-23T08:01:02Z</time>
      </trkpt>
      <trkpt lat="43.60574" lon="1.32605">
        <ele>182.79</ele>
        <time>2017-02-23T08:01:04Z</time>
      </trkpt>
      <trkpt lat="43.60551" lon="1.32622">
        <ele>182.79</ele>
        <time>2017-02-23T08:01:09Z</time>
      </trkpt>
      <trkpt lat="43.60521" lon="1.32672">
        <ele>182.79</ele>
        <time>2017-02-23T08:01:16Z</time>
      </trkpt>
      <trkpt lat="43.60527" lon="1.32717">
        <ele>181.83</ele>
        <time>2017-02-23T08:01:23Z</time>
      </trkpt>
      <trkpt lat="43.6053" lon="1.3272">
        <ele>181.35</ele>
        <time>2017-02-23T08:01:24Z</time>
      </trkpt>
      <trkpt lat="43.60551" lon="1.32741">
        <ele>180.87</ele>
        <time>2017-02-23T08:01:31Z</time>
      </trkpt>
      <trkpt lat="43.6055" lon="1.32809">
        <ele>182.31</ele>
        <time>2017-02-23T08:01:40Z</time>
      </trkpt>
      <trkpt lat="43.60546" lon="1.32974">
        <ele>182.31</ele>
        <time>2017-02-23T08:01:54Z</time>
      </trkpt>
      <trkpt lat="43.6054" lon="1.33112">
        <ele>181.83</ele>
        <time>2017-02-23T08:02:06Z</time>
      </trkpt>
      <trkpt lat="43.60564" lon="1.33162">
        <ele>181.83</ele>
        <time>2017-02-23T08:02:12Z</time>
      </trkpt>
      <trkpt lat="43.6059" lon="1.33184">
        <ele>182.31</ele>
        <time>2017-02-23T08:02:16Z</time>
      </trkpt>
      <trkpt lat="43.60594" lon="1.33226">
        <ele>181.83</ele>
        <time>2017-02-23T08:02:20Z</time>
      </trkpt>
      <trkpt lat="43.6058" lon="1.33274">
        <ele>182.31</ele>
        <time>2017-02-23T08:02:25Z</time>
      </trkpt>
      <trkpt lat="43.60541" lon="1.33335">
        <ele>182.79</ele>
        <time>2017-02-23T08:02:33Z</time>
      </trkpt>
      <trkpt lat="43.60562" lon="1.33395">
        <ele>181.35</ele>
        <time>2017-02-23T08:02:40Z</time>
      </trkpt>
      <trkpt lat="43.60566" lon="1.33404">
        <ele>181.83</ele>
        <time>2017-02-23T08:02:41Z</time>
      </trkpt>
      <trkpt lat="43.60594" lon="1.33437">
        <ele>181.35</ele>
        <time>2017-02-23T08:02:46Z</time>
      </trkpt>
      <trkpt lat="43.60587" lon="1.33481">
        <ele>180.38</ele>
        <time>2017-02-23T08:02:51Z</time>
      </trkpt>
      <trkpt lat="43.60572" lon="1.3348">
        <ele>180.38</ele>
        <time>2017-02-23T08:02:53Z</time>
      </trkpt>
      <trkpt lat="43.60542" lon="1.33472">
        <ele>179.9</ele>
        <time>2017-02-23T08:02:57Z</time>
      </trkpt>
      <trkpt lat="43.60497" lon="1.33482">
        <ele>181.35</ele>
        <time>2017-02-23T08:03:03Z</time>
      </trkpt>
      <trkpt lat="43.60473" lon="1.33529">
        <ele>181.83</ele>
        <time>2017-02-23T08:03:09Z</time>
      </trkpt>
      <trkpt lat="43.60471" lon="1.3355">
        <ele>181.83</ele>
        <time>2017-02-23T08:03:11Z</time>
      </trkpt>
      <trkpt lat="43.60436" lon="1.33586">
        <ele>182.31</ele>
        <time>2017-02-23T08:03:17Z</time>
      </trkpt>
      <trkpt lat="43.60356" lon="1.3364">
        <ele>180.38</ele>
        <time>2017-02-23T08:03:29Z</time>
      </trkpt>
      <trkpt lat="43.60338" lon="1.33661">
        <ele>179.9</ele>
        <time>2017-02-23T08:03:32Z</time>
      </trkpt>
      <trkpt lat="43.60315" lon="1.33715">
        <ele>178.94</ele>
        <time>2017-02-23T08:03:38Z</time>
      </trkpt>
      <trkpt lat="43.60273" lon="1.33961">
        <ele>178.46</ele>
        <time>2017-02-23T08:04:00Z</time>
      </trkpt>
      <trkpt lat="43.60264" lon="1.3401">
        <ele>177.02</ele>
        <time>2017-02-23T08:04:04Z</time>
      </trkpt>
      <trkpt lat="43.60232" lon="1.34194">
        <ele>173.66</ele>
        <time>2017-02-23T08:04:19Z</time>
      </trkpt>
      <trkpt lat="43.60231" lon="1.34349">
        <ele>173.17</ele>
        <time>2017-02-23T08:04:32Z</time>
      </trkpt>
      <trkpt lat="43.60253" lon="1.34467">
        <ele>170.77</ele>
        <time>2017-02-23T08:04:42Z</time>
      </trkpt>
      <trkpt lat="43.60266" lon="1.34583">
        <ele>167.41</ele>
        <time>2017-02-23T08:04:54Z</time>
      </trkpt>
      <trkpt lat="43.60278" lon="1.34739">
        <ele>163.56</ele>
        <time>2017-02-23T08:05:06Z</time>
      </trkpt>
      <trkpt lat="43.60279" lon="1.34753">
        <ele>163.56</ele>
        <time>2017-02-23T08:05:07Z</time>
      </trkpt>
      <trkpt lat="43.60281" lon="1.34841">
        <ele>160.2</ele>
        <time>2017-02-23T08:05:13Z</time>
      </trkpt>
      <trkpt lat="43.60279" lon="1.34959">
        <ele>156.83</ele>
        <time>2017-02-23T08:05:21Z</time>
      </trkpt>
      <trkpt lat="43.60278" lon="1.35001">
        <ele>156.35</ele>
        <time>2017-02-23T08:05:24Z</time>
      </trkpt>
      <trkpt lat="43.60297" lon="1.35054">
        <ele>153.47</ele>
        <time>2017-02-23T08:05:31Z</time>
      </trkpt>
      <trkpt lat="43.60318" lon="1.3505">
        <ele>153.47</ele>
        <time>2017-02-23T08:05:35Z</time>
      </trkpt>
      <trkpt lat="43.60382" lon="1.35027">
        <ele>153.95</ele>
        <time>2017-02-23T08:05:44Z</time>
      </trkpt>
      <trkpt lat="43.60496" lon="1.35048">
        <ele>152.99</ele>
        <time>2017-02-23T08:05:57Z</time>
      </trkpt>
      <trkpt lat="43.60603" lon="1.35093">
        <ele>152.03</ele>
        <time>2017-02-23T08:06:10Z</time>
      </trkpt>
      <trkpt lat="43.60633" lon="1.35147">
        <ele>152.51</ele>
        <time>2017-02-23T08:06:16Z</time>
      </trkpt>
      <trkpt lat="43.60681" lon="1.35327">
        <ele>152.03</ele>
        <time>2017-02-23T08:06:34Z</time>
      </trkpt>
      <trkpt lat="43.60675" lon="1.35359">
        <ele>152.03</ele>
        <time>2017-02-23T08:06:39Z</time>
      </trkpt>
      <trkpt lat="43.60647" lon="1.35418">
        <ele>152.99</ele>
        <time>2017-02-23T08:06:48Z</time>
      </trkpt>
      <trkpt lat="43.60647" lon="1.35428">
        <ele>152.99</ele>
        <time>2017-02-23T08:06:49Z</time>
      </trkpt>
      <trkpt lat="43.60642" lon="1.355">
        <ele>152.03</ele>
        <time>2017-02-23T08:06:56Z</time>
      </trkpt>
      <trkpt lat="43.60636" lon="1.35529">
        <ele>152.03</ele>
        <time>2017-02-23T08:06:59Z</time>
      </trkpt>
      <trkpt lat="43.60653" lon="1.35539">
        <ele>151.06</ele>
        <time>2017-02-23T08:07:03Z</time>
      </trkpt>
      <trkpt lat="43.60666" lon="1.35535">
        <ele>151.06</ele>
        <time>2017-02-23T08:07:05Z</time>
      </trkpt>
      <trkpt lat="43.60761" lon="1.35546">
        <ele>151.06</ele>
        <time>2017-02-23T08:07:17Z</time>
      </trkpt>
      <trkpt lat="43.60791" lon="1.3559">
        <ele>151.54</ele>
        <time>2017-02-23T08:07:23Z</time>
      </trkpt>
      <trkpt lat="43.60787" lon="1.35849">
        <ele>150.58</ele>
        <time>2017-02-23T08:07:46Z</time>
      </trkpt>
      <trkpt lat="43.60777" lon="1.36172">
        <ele>150.1</ele>
        <time>2017-02-23T08:08:16Z</time>
      </trkpt>
      <trkpt lat="43.60773" lon="1.36329">
        <ele>149.62</ele>
        <time>2017-02-23T08:08:31Z</time>
      </trkpt>
      <trkpt lat="43.60782" lon="1.36366">
        <ele>149.62</ele>
        <time>2017-02-23T08:08:35Z</time>
      </trkpt>
      <trkpt lat="43.6079" lon="1.36383">
        <ele>149.62</ele>
        <time>2017-02-23T08:08:37Z</time>
      </trkpt>
      <trkpt lat="43.60813" lon="1.36449">
        <ele>150.58</ele>
        <time>2017-02-23T08:08:45Z</time>
      </trkpt>
      <trkpt lat="43.60834" lon="1.36476">
        <ele>150.1</ele>
        <time>2017-02-23T08:08:49Z</time>
      </trkpt>
      <trkpt lat="43.60872" lon="1.36473">
        <ele>149.62</ele>
        <time>2017-02-23T08:08:54Z</time>
      </trkpt>
      <trkpt lat="43.60898" lon="1.36476">
        <ele>148.66</ele>
        <time>2017-02-23T08:08:57Z</time>
      </trkpt>
      <trkpt lat="43.60921" lon="1.36529">
        <ele>148.18</ele>
        <time>2017-02-23T08:09:03Z</time>
      </trkpt>
      <trkpt lat="43.60918" lon="1.3655">
        <ele>148.66</ele>
        <time>2017-02-23T08:09:05Z</time>
      </trkpt>
      <trkpt lat="43.6092" lon="1.3659">
        <ele>150.1</ele>
        <time>2017-02-23T08:09:09Z</time>
      </trkpt>
      <trkpt lat="43.6092" lon="1.36713">
        <ele>149.14</ele>
        <time>2017-02-23T08:09:20Z</time>
      </trkpt>
      <trkpt lat="43.60919" lon="1.3692">
        <ele>148.66</ele>
        <time>2017-02-23T08:09:38Z</time>
      </trkpt>
      <trkpt lat="43.60924" lon="1.36942">
        <ele>148.66</ele>
        <time>2017-02-23T08:09:40Z</time>
      </trkpt>
      <trkpt lat="43.6099" lon="1.37104">
        <ele>148.66</ele>
        <time>2017-02-23T08:09:57Z</time>
      </trkpt>
      <trkpt lat="43.61024" lon="1.37184">
        <ele>148.66</ele>
        <time>2017-02-23T08:10:06Z</time>
      </trkpt>
      <trkpt lat="43.61055" lon="1.37211">
        <ele>148.66</ele>
        <time>2017-02-23T08:10:11Z</time>
      </trkpt>
      <trkpt lat="43.61069" lon="1.37217">
        <ele>148.66</ele>
        <time>2017-02-23T08:10:13Z</time>
      </trkpt>
      <trkpt lat="43.61085" lon="1.37262">
        <ele>149.62</ele>
        <time>2017-02-23T08:10:19Z</time>
      </trkpt>
      <trkpt lat="43.61083" lon="1.3729">
        <ele>150.1</ele>
        <time>2017-02-23T08:10:22Z</time>
      </trkpt>
      <trkpt lat="43.61109" lon="1.37321">
        <ele>148.66</ele>
        <time>2017-02-23T08:10:27Z</time>
      </trkpt>
      <trkpt lat="43.61116" lon="1.37356">
        <ele>147.22</ele>
        <time>2017-02-23T08:10:32Z</time>
      </trkpt>
      <trkpt lat="43.61113" lon="1.37384">
        <ele>146.74</ele>
        <time>2017-02-23T08:10:36Z</time>
      </trkpt>
      <trkpt lat="43.61107" lon="1.37432">
        <ele>147.22</ele>
        <time>2017-02-23T08:10:41Z</time>
      </trkpt>
      <trkpt lat="43.61097" lon="1.37481">
        <ele>147.22</ele>
        <time>2017-02-23T08:10:46Z</time>
      </trkpt>
      <trkpt lat="43.61108" lon="1.37591">
        <ele>148.66</ele>
        <time>2017-02-23T08:10:56Z</time>
      </trkpt>
      <trkpt lat="43.61155" lon="1.37723">
        <ele>149.14</ele>
        <time>2017-02-23T08:11:08Z</time>
      </trkpt>
      <trkpt lat="43.6118" lon="1.37826">
        <ele>148.66</ele>
        <time>2017-02-23T08:11:17Z</time>
      </trkpt>
      <trkpt lat="43.61201" lon="1.37862">
        <ele>148.18</ele>
        <time>2017-02-23T08:11:21Z</time>
      </trkpt>
      <trkpt lat="43.61227" lon="1.37875">
        <ele>148.18</ele>
        <time>2017-02-23T08:11:25Z</time>
      </trkpt>
      <trkpt lat="43.61253" lon="1.37923">
        <ele>149.14</ele>
        <time>2017-02-23T08:11:31Z</time>
      </trkpt>
      <trkpt lat="43.613" lon="1.38172">
        <ele>148.66</ele>
        <time>2017-02-23T08:11:54Z</time>
      </trkpt>
      <trkpt lat="43.61293" lon="1.38214">
        <ele>148.66</ele>
        <time>2017-02-23T08:11:58Z</time>
      </trkpt>
      <trkpt lat="43.61246" lon="1.38343">
        <ele>145.78</ele>
        <time>2017-02-23T08:12:10Z</time>
      </trkpt>
      <trkpt lat="43.61261" lon="1.3843">
        <ele>142.89</ele>
        <time>2017-02-23T08:12:17Z</time>
      </trkpt>
      <trkpt lat="43.61382" lon="1.38622">
        <ele>141.45</ele>
        <time>2017-02-23T08:12:36Z</time>
      </trkpt>
      <trkpt lat="43.61496" lon="1.38724">
        <ele>140.01</ele>
        <time>2017-02-23T08:12:51Z</time>
      </trkpt>
      <trkpt lat="43.61529" lon="1.38741">
        <ele>139.53</ele>
        <time>2017-02-23T08:12:55Z</time>
      </trkpt>
      <trkpt lat="43.61652" lon="1.38782">
        <ele>140.49</ele>
        <time>2017-02-23T08:13:10Z</time>
      </trkpt>
      <trkpt lat="43.61688" lon="1.388">
        <ele>142.89</ele>
        <time>2017-02-23T08:13:15Z</time>
      </trkpt>
      <trkpt lat="43.61813" lon="1.38864">
        <ele>143.37</ele>
        <time>2017-02-23T08:13:32Z</time>
      </trkpt>
      <trkpt lat="43.61961" lon="1.38918">
        <ele>143.37</ele>
        <time>2017-02-23T08:13:52Z</time>
      </trkpt>
      <trkpt lat="43.62029" lon="1.38938">
        <ele>143.37</ele>
        <time>2017-02-23T08:14:01Z</time>
      </trkpt>
      <trkpt lat="43.62054" lon="1.38956">
        <ele>143.85</ele>
        <time>2017-02-23T08:14:05Z</time>
      </trkpt>
      <trkpt lat="43.62082" lon="1.38998">
        <ele>144.82</ele>
        <time>2017-02-23T08:14:11Z</time>
      </trkpt>
      <trkpt lat="43.62115" lon="1.39052">
        <ele>144.34</ele>
        <time>2017-02-23T08:14:20Z</time>
      </trkpt>
      <trkpt lat="43.62143" lon="1.39105">
        <ele>143.37</ele>
        <time>2017-02-23T08:14:26Z</time>
      </trkpt>
      <trkpt lat="43.62171" lon="1.39132">
        <ele>142.41</ele>
        <time>2017-02-23T08:14:30Z</time>
      </trkpt>
      <trkpt lat="43.62206" lon="1.39146">
        <ele>141.45</ele>
        <time>2017-02-23T08:14:34Z</time>
      </trkpt>
      <trkpt lat="43.62244" lon="1.39174">
        <ele>138.57</ele>
        <time>2017-02-23T08:14:41Z</time>
      </trkpt>
      <trkpt lat="43.62249" lon="1.39177">
        <ele>138.09</ele>
        <time>2017-02-23T08:14:42Z</time>
      </trkpt>
      <trkpt lat="43.62252" lon="1.39179">
        <ele>138.09</ele>
        <time>2017-02-23T08:14:43Z</time>
      </trkpt>
      <trkpt lat="43.62294" lon="1.39107">
        <ele>140.49</ele>
        <time>2017-02-23T08:14:59Z</time>
      </trkpt>
      <trkpt lat="43.62297" lon="1.39102">
        <ele>140.97</ele>
        <time>2017-02-23T08:15:00Z</time>
      </trkpt>
      <trkpt lat="43.62303" lon="1.39075">
        <ele>141.45</ele>
        <time>2017-02-23T08:15:04Z</time>
      </trkpt>
      <trkpt lat="43.62301" lon="1.39032">
        <ele>142.89</ele>
        <time>2017-02-23T08:15:09Z</time>
      </trkpt>
      <trkpt lat="43.62301" lon="1.38997">
        <ele>143.85</ele>
        <time>2017-02-23T08:15:13Z</time>
      </trkpt>
      <trkpt lat="43.62304" lon="1.38979">
        <ele>144.82</ele>
        <time>2017-02-23T08:15:15Z</time>
      </trkpt>
      <trkpt lat="43.62312" lon="1.38965">
        <ele>144.82</ele>
        <time>2017-02-23T08:15:17Z</time>
      </trkpt>
      <trkpt lat="43.62374" lon="1.38837">
        <ele>144.34</ele>
        <time>2017-02-23T08:15:33Z</time>
      </trkpt>
      <trkpt lat="43.62428" lon="1.38725">
        <ele>145.78</ele>
        <time>2017-02-23T08:15:47Z</time>
      </trkpt>
      <trkpt lat="43.62429" lon="1.38688">
        <ele>145.78</ele>
        <time>2017-02-23T08:15:53Z</time>
      </trkpt>
      <trkpt lat="43.62473" lon="1.38579">
        <ele>146.74</ele>
        <time>2017-02-23T08:16:07Z</time>
      </trkpt>
      <trkpt lat="43.62509" lon="1.38457">
        <ele>147.22</ele>
        <time>2017-02-23T08:16:21Z</time>
      </trkpt>
      <trkpt lat="43.62499" lon="1.38418">
        <ele>147.22</ele>
        <time>2017-02-23T08:16:26Z</time>
      </trkpt>
      <trkpt lat="43.62492" lon="1.384">
        <ele>147.7</ele>
        <time>2017-02-23T08:16:28Z</time>
      </trkpt>
      <trkpt lat="43.62492" lon="1.38356">
        <ele>147.22</ele>
        <time>2017-02-23T08:16:32Z</time>
      </trkpt>
      <trkpt lat="43.62504" lon="1.38317">
        <ele>145.78</ele>
        <time>2017-02-23T08:16:36Z</time>
      </trkpt>
      <trkpt lat="43.62483" lon="1.38283">
        <ele>146.26</ele>
        <time>2017-02-23T08:16:41Z</time>
      </trkpt>
      <trkpt lat="43.62463" lon="1.38271">
        <ele>147.22</ele>
        <time>2017-02-23T08:16:44Z</time>
      </trkpt>
      <trkpt lat="43.62451" lon="1.3823">
        <ele>146.26</ele>
        <time>2017-02-23T08:16:50Z</time>
      </trkpt>
      <trkpt lat="43.62438" lon="1.38212">
        <ele>146.74</ele>
        <time>2017-02-23T08:16:53Z</time>
      </trkpt>
      <trkpt lat="43.62368" lon="1.38168">
        <ele>147.22</ele>
        <time>2017-02-23T08:17:04Z</time>
      </trkpt>
      <trkpt lat="43.62338" lon="1.3815">
        <ele>147.22</ele>
        <time>2017-02-23T08:17:09Z</time>
      </trkpt>
      <trkpt lat="43.62322" lon="1.38162">
        <ele>147.22</ele>
        <time>2017-02-23T08:17:13Z</time>
      </trkpt>
      <trkpt lat="43.62276" lon="1.38307">
        <ele>147.22</ele>
        <time>2017-02-23T08:17:29Z</time>
      </trkpt>
      <trkpt lat="43.62221" lon="1.38469">
        <ele>146.74</ele>
        <time>2017-02-23T08:17:47Z</time>
      </trkpt>
      <trkpt lat="43.62207" lon="1.38489">
        <ele>146.74</ele>
        <time>2017-02-23T08:17:50Z</time>
      </trkpt>
      <trkpt lat="43.6222" lon="1.385">
        <ele>147.22</ele>
        <time>2017-02-23T08:17:54Z</time>
      </trkpt>
      <trkpt lat="43.62273" lon="1.38527">
        <ele>146.74</ele>
        <time>2017-02-23T08:18:03Z</time>
      </trkpt>
      <trkpt lat="43.62299" lon="1.38544">
        <ele>145.78</ele>
        <time>2017-02-23T08:18:11Z</time>
      </trkpt>
      <trkpt lat="43.62299" lon="1.38544">
        <ele>146.26</ele>
        <time>2017-02-23T08:18:16Z</time>
      </trkpt>
    </trkseg>
  </trk>
</gpx>